sensor_id;sensor_type;location;lat;lon;timestamp;P1;durP1;ratioP1;P2;durP2;ratioP2
70433;SDS011;57876;47.792;12.960;2022-08-27T00:00:09;5.15;;;1.90;;
70433;SDS011;57876;47.792;12.960;2022-08-27T00:02:38;5.20;;;2.10;;
70433;SDS011;57876;47.792;12.960;2022-08-27T00:05:02;5.07;;;2.13;;
70433;SDS011;57876;47.792;12.960;2022-08-27T00:07:27;5.63;;;1.80;;
70433;SDS011;57876;47.792;12.960;2022-08-27T00:09:52;5.37;;;1.87;;
70433;SDS011;57876;47.792;12.960;2022-08-27T00:12:16;5.10;;;2.08;;
70433;SDS011;57876;47.792;12.960;2022-08-27T00:14:41;5.20;;;2.20;;
70433;SDS011;57876;47.792;12.960;2022-08-27T00:17:06;5.37;;;1.83;;
70433;SDS011;57876;47.792;12.960;2022-08-27T00:19:30;5.07;;;1.98;;
70433;SDS011;57876;47.792;12.960;2022-08-27T00:21:55;5.20;;;2.13;;
70433;SDS011;57876;47.792;12.960;2022-08-27T00:24:20;5.10;;;2.08;;
70433;SDS011;57876;47.792;12.960;2022-08-27T00:26:44;5.30;;;2.17;;
70433;SDS011;57876;47.792;12.960;2022-08-27T00:29:09;5.35;;;2.00;;
70433;SDS011;57876;47.792;12.960;2022-08-27T00:31:34;4.97;;;1.88;;
70433;SDS011;57876;47.792;12.960;2022-08-27T00:33:59;5.20;;;2.10;;
70433;SDS011;57876;47.792;12.960;2022-08-27T00:36:23;5.30;;;2.20;;
70433;SDS011;57876;47.792;12.960;2022-08-27T00:38:48;5.32;;;1.95;;
70433;SDS011;57876;47.792;12.960;2022-08-27T00:41:13;5.30;;;2.00;;
70433;SDS011;57876;47.792;12.960;2022-08-27T00:43:43;5.30;;;2.38;;
70433;SDS011;57876;47.792;12.960;2022-08-27T00:46:19;5.00;;;2.22;;
70433;SDS011;57876;47.792;12.960;2022-08-27T00:48:55;6.28;;;2.42;;
70433;SDS011;57876;47.792;12.960;2022-08-27T00:51:23;5.15;;;2.20;;
70433;SDS011;57876;47.792;12.960;2022-08-27T00:53:48;5.57;;;2.57;;
70433;SDS011;57876;47.792;12.960;2022-08-27T00:56:16;6.28;;;2.65;;
70433;SDS011;57876;47.792;12.960;2022-08-27T00:58:46;5.53;;;2.47;;
70433;SDS011;57876;47.792;12.960;2022-08-27T01:01:16;6.28;;;2.70;;
70433;SDS011;57876;47.792;12.960;2022-08-27T01:03:43;7.28;;;3.33;;
70433;SDS011;57876;47.792;12.960;2022-08-27T01:06:11;6.47;;;3.00;;
70433;SDS011;57876;47.792;12.960;2022-08-27T01:08:39;6.97;;;3.42;;
70433;SDS011;57876;47.792;12.960;2022-08-27T01:11:09;7.13;;;3.42;;
70433;SDS011;57876;47.792;12.960;2022-08-27T01:13:34;7.93;;;3.25;;
70433;SDS011;57876;47.792;12.960;2022-08-27T01:16:01;8.10;;;3.58;;
70433;SDS011;57876;47.792;12.960;2022-08-27T01:18:26;7.23;;;3.50;;
70433;SDS011;57876;47.792;12.960;2022-08-27T01:21:04;6.60;;;3.40;;
70433;SDS011;57876;47.792;12.960;2022-08-27T01:26:28;7.38;;;3.38;;
70433;SDS011;57876;47.792;12.960;2022-08-27T01:28:54;6.50;;;3.25;;
70433;SDS011;57876;47.792;12.960;2022-08-27T01:31:19;7.27;;;3.30;;
70433;SDS011;57876;47.792;12.960;2022-08-27T01:33:54;6.88;;;3.40;;
70433;SDS011;57876;47.792;12.960;2022-08-27T01:36:20;7.37;;;3.43;;
70433;SDS011;57876;47.792;12.960;2022-08-27T01:38:45;6.15;;;3.15;;
70433;SDS011;57876;47.792;12.960;2022-08-27T01:41:09;6.37;;;3.10;;
70433;SDS011;57876;47.792;12.960;2022-08-27T01:43:34;6.70;;;3.30;;
70433;SDS011;57876;47.792;12.960;2022-08-27T01:45:59;6.30;;;3.33;;
70433;SDS011;57876;47.792;12.960;2022-08-27T01:48:23;6.40;;;3.15;;
70433;SDS011;57876;47.792;12.960;2022-08-27T01:50:48;6.83;;;3.30;;
70433;SDS011;57876;47.792;12.960;2022-08-27T01:53:14;5.80;;;2.75;;
70433;SDS011;57876;47.792;12.960;2022-08-27T01:55:42;7.55;;;3.20;;
70433;SDS011;57876;47.792;12.960;2022-08-27T01:58:08;6.03;;;2.80;;
70433;SDS011;57876;47.792;12.960;2022-08-27T02:00:34;6.00;;;2.70;;
70433;SDS011;57876;47.792;12.960;2022-08-27T02:03:02;6.57;;;2.70;;
70433;SDS011;57876;47.792;12.960;2022-08-27T02:05:27;6.30;;;3.13;;
70433;SDS011;57876;47.792;12.960;2022-08-27T02:07:52;7.43;;;2.95;;
70433;SDS011;57876;47.792;12.960;2022-08-27T02:10:19;6.17;;;3.00;;
70433;SDS011;57876;47.792;12.960;2022-08-27T02:12:45;5.97;;;2.85;;
70433;SDS011;57876;47.792;12.960;2022-08-27T02:15:10;6.37;;;2.87;;
70433;SDS011;57876;47.792;12.960;2022-08-27T02:17:35;6.45;;;2.78;;
70433;SDS011;57876;47.792;12.960;2022-08-27T02:20:01;7.63;;;2.88;;
70433;SDS011;57876;47.792;12.960;2022-08-27T02:22:26;6.47;;;2.50;;
70433;SDS011;57876;47.792;12.960;2022-08-27T02:24:50;6.35;;;2.90;;
70433;SDS011;57876;47.792;12.960;2022-08-27T02:27:16;5.70;;;2.90;;
70433;SDS011;57876;47.792;12.960;2022-08-27T02:29:41;6.60;;;3.07;;
70433;SDS011;57876;47.792;12.960;2022-08-27T02:32:06;6.32;;;2.97;;
70433;SDS011;57876;47.792;12.960;2022-08-27T02:34:30;5.60;;;2.50;;
70433;SDS011;57876;47.792;12.960;2022-08-27T02:36:55;6.10;;;2.70;;
70433;SDS011;57876;47.792;12.960;2022-08-27T02:39:20;5.88;;;2.65;;
70433;SDS011;57876;47.792;12.960;2022-08-27T02:41:45;6.75;;;2.55;;
70433;SDS011;57876;47.792;12.960;2022-08-27T02:44:10;5.60;;;2.70;;
70433;SDS011;57876;47.792;12.960;2022-08-27T02:46:34;6.10;;;2.80;;
70433;SDS011;57876;47.792;12.960;2022-08-27T02:48:59;6.33;;;2.40;;
70433;SDS011;57876;47.792;12.960;2022-08-27T02:51:23;5.90;;;2.83;;
70433;SDS011;57876;47.792;12.960;2022-08-27T02:53:48;6.07;;;2.80;;
70433;SDS011;57876;47.792;12.960;2022-08-27T02:56:13;6.65;;;2.65;;
70433;SDS011;57876;47.792;12.960;2022-08-27T02:58:37;5.73;;;2.50;;
70433;SDS011;57876;47.792;12.960;2022-08-27T03:01:04;5.95;;;2.67;;
70433;SDS011;57876;47.792;12.960;2022-08-27T03:03:29;6.10;;;2.70;;
70433;SDS011;57876;47.792;12.960;2022-08-27T03:05:54;6.30;;;2.60;;
70433;SDS011;57876;47.792;12.960;2022-08-27T03:08:20;6.15;;;2.72;;
70433;SDS011;57876;47.792;12.960;2022-08-27T03:10:46;6.10;;;2.45;;
70433;SDS011;57876;47.792;12.960;2022-08-27T03:13:11;6.20;;;2.80;;
70433;SDS011;57876;47.792;12.960;2022-08-27T03:15:35;6.97;;;2.67;;
70433;SDS011;57876;47.792;12.960;2022-08-27T03:18:00;7.25;;;2.50;;
70433;SDS011;57876;47.792;12.960;2022-08-27T03:20:44;5.90;;;2.80;;
70433;SDS011;57876;47.792;12.960;2022-08-27T03:23:10;6.05;;;2.45;;
70433;SDS011;57876;47.792;12.960;2022-08-27T03:25:37;5.72;;;2.53;;
70433;SDS011;57876;47.792;12.960;2022-08-27T03:28:05;5.40;;;2.50;;
70433;SDS011;57876;47.792;12.960;2022-08-27T03:30:30;5.60;;;2.40;;
70433;SDS011;57876;47.792;12.960;2022-08-27T03:32:55;5.40;;;2.50;;
70433;SDS011;57876;47.792;12.960;2022-08-27T03:35:19;5.65;;;2.33;;
70433;SDS011;57876;47.792;12.960;2022-08-27T03:37:44;5.50;;;2.40;;
70433;SDS011;57876;47.792;12.960;2022-08-27T03:40:10;6.00;;;2.40;;
70433;SDS011;57876;47.792;12.960;2022-08-27T03:42:35;5.65;;;2.35;;
70433;SDS011;57876;47.792;12.960;2022-08-27T03:45:00;6.80;;;2.45;;
70433;SDS011;57876;47.792;12.960;2022-08-27T03:47:25;5.22;;;2.05;;
70433;SDS011;57876;47.792;12.960;2022-08-27T03:49:49;6.67;;;2.40;;
70433;SDS011;57876;47.792;12.960;2022-08-27T03:52:14;6.33;;;2.40;;
70433;SDS011;57876;47.792;12.960;2022-08-27T03:54:39;6.10;;;2.13;;
70433;SDS011;57876;47.792;12.960;2022-08-27T03:57:04;6.25;;;2.50;;
70433;SDS011;57876;47.792;12.960;2022-08-27T03:59:29;5.50;;;2.20;;
70433;SDS011;57876;47.792;12.960;2022-08-27T04:01:54;5.27;;;2.30;;
70433;SDS011;57876;47.792;12.960;2022-08-27T04:36:40;6.03;;;2.30;;
70433;SDS011;57876;47.792;12.960;2022-08-27T04:39:51;5.28;;;2.20;;
70433;SDS011;57876;47.792;12.960;2022-08-27T04:57:20;7.05;;;2.70;;
70433;SDS011;57876;47.792;12.960;2022-08-27T05:00:56;5.37;;;2.03;;
70433;SDS011;57876;47.792;12.960;2022-08-27T05:14:28;6.45;;;2.42;;
70433;SDS011;57876;47.792;12.960;2022-08-27T05:24:10;5.70;;;2.42;;
70433;SDS011;57876;47.792;12.960;2022-08-27T05:26:35;5.67;;;2.33;;
70433;SDS011;57876;47.792;12.960;2022-08-27T05:29:00;6.00;;;2.45;;
70433;SDS011;57876;47.792;12.960;2022-08-27T05:31:25;6.03;;;2.40;;
70433;SDS011;57876;47.792;12.960;2022-08-27T05:33:51;5.80;;;2.40;;
70433;SDS011;57876;47.792;12.960;2022-08-27T05:36:20;7.85;;;2.78;;
70433;SDS011;57876;47.792;12.960;2022-08-27T05:38:49;5.83;;;2.50;;
70433;SDS011;57876;47.792;12.960;2022-08-27T05:41:15;6.43;;;2.50;;
70433;SDS011;57876;47.792;12.960;2022-08-27T05:43:42;5.82;;;2.58;;
70433;SDS011;57876;47.792;12.960;2022-08-27T05:46:08;5.65;;;2.55;;
70433;SDS011;57876;47.792;12.960;2022-08-27T05:48:35;5.80;;;2.10;;
70433;SDS011;57876;47.792;12.960;2022-08-27T05:51:17;5.50;;;2.40;;
70433;SDS011;57876;47.792;12.960;2022-08-27T05:54:03;5.38;;;2.40;;
70433;SDS011;57876;47.792;12.960;2022-08-27T05:56:29;6.10;;;2.40;;
70433;SDS011;57876;47.792;12.960;2022-08-27T05:58:56;5.93;;;2.40;;
70433;SDS011;57876;47.792;12.960;2022-08-27T06:01:42;5.70;;;2.30;;
70433;SDS011;57876;47.792;12.960;2022-08-27T06:04:08;7.15;;;2.38;;
70433;SDS011;57876;47.792;12.960;2022-08-27T06:06:34;5.30;;;2.50;;
70433;SDS011;57876;47.792;12.960;2022-08-27T06:09:00;5.20;;;2.33;;
70433;SDS011;57876;47.792;12.960;2022-08-27T06:11:25;6.10;;;2.47;;
70433;SDS011;57876;47.792;12.960;2022-08-27T06:13:49;5.43;;;2.40;;
70433;SDS011;57876;47.792;12.960;2022-08-27T06:16:14;5.77;;;2.50;;
70433;SDS011;57876;47.792;12.960;2022-08-27T06:18:41;5.55;;;2.33;;
70433;SDS011;57876;47.792;12.960;2022-08-27T06:21:08;5.40;;;2.40;;
70433;SDS011;57876;47.792;12.960;2022-08-27T06:23:34;7.43;;;2.42;;
70433;SDS011;57876;47.792;12.960;2022-08-27T06:25:59;5.40;;;2.10;;
70433;SDS011;57876;47.792;12.960;2022-08-27T06:28:25;5.43;;;2.35;;
70433;SDS011;57876;47.792;12.960;2022-08-27T06:31:01;5.68;;;2.17;;
70433;SDS011;57876;47.792;12.960;2022-08-27T06:33:27;5.32;;;2.13;;
70433;SDS011;57876;47.792;12.960;2022-08-27T06:35:51;5.57;;;2.50;;
70433;SDS011;57876;47.792;12.960;2022-08-27T06:38:15;5.30;;;2.23;;
70433;SDS011;57876;47.792;12.960;2022-08-27T06:40:40;5.33;;;2.30;;
70433;SDS011;57876;47.792;12.960;2022-08-27T06:43:05;5.45;;;2.25;;
70433;SDS011;57876;47.792;12.960;2022-08-27T06:45:29;5.30;;;2.30;;
70433;SDS011;57876;47.792;12.960;2022-08-27T06:47:53;5.80;;;2.30;;
70433;SDS011;57876;47.792;12.960;2022-08-27T06:50:18;5.00;;;2.05;;
70433;SDS011;57876;47.792;12.960;2022-08-27T06:52:43;5.50;;;2.30;;
70433;SDS011;57876;47.792;12.960;2022-08-27T06:55:07;5.45;;;2.17;;
70433;SDS011;57876;47.792;12.960;2022-08-27T06:57:34;5.33;;;2.17;;
70433;SDS011;57876;47.792;12.960;2022-08-27T06:59:58;5.22;;;2.20;;
70433;SDS011;57876;47.792;12.960;2022-08-27T07:02:23;5.60;;;2.13;;
70433;SDS011;57876;47.792;12.960;2022-08-27T07:04:47;6.23;;;2.70;;
70433;SDS011;57876;47.792;12.960;2022-08-27T07:07:13;5.43;;;2.10;;
70433;SDS011;57876;47.792;12.960;2022-08-27T07:09:38;5.20;;;2.05;;
70433;SDS011;57876;47.792;12.960;2022-08-27T07:12:03;5.43;;;2.40;;
70433;SDS011;57876;47.792;12.960;2022-08-27T07:14:28;5.82;;;2.63;;
70433;SDS011;57876;47.792;12.960;2022-08-27T07:16:53;5.10;;;2.20;;
70433;SDS011;57876;47.792;12.960;2022-08-27T07:19:18;5.40;;;2.30;;
70433;SDS011;57876;47.792;12.960;2022-08-27T07:21:42;5.13;;;2.03;;
70433;SDS011;57876;47.792;12.960;2022-08-27T07:24:07;5.80;;;2.30;;
70433;SDS011;57876;47.792;12.960;2022-08-27T07:26:33;5.20;;;2.30;;
70433;SDS011;57876;47.792;12.960;2022-08-27T07:29:00;6.40;;;2.20;;
70433;SDS011;57876;47.792;12.960;2022-08-27T07:31:26;5.18;;;2.10;;
70433;SDS011;57876;47.792;12.960;2022-08-27T07:33:51;5.30;;;2.30;;
70433;SDS011;57876;47.792;12.960;2022-08-27T07:36:15;5.40;;;2.20;;
70433;SDS011;57876;47.792;12.960;2022-08-27T07:38:40;5.30;;;2.20;;
70433;SDS011;57876;47.792;12.960;2022-08-27T07:41:05;5.15;;;2.22;;
70433;SDS011;57876;47.792;12.960;2022-08-27T07:43:31;5.20;;;2.00;;
70433;SDS011;57876;47.792;12.960;2022-08-27T07:46:14;5.70;;;2.60;;
70433;SDS011;57876;47.792;12.960;2022-08-27T07:48:38;5.78;;;2.17;;
70433;SDS011;57876;47.792;12.960;2022-08-27T07:51:03;5.33;;;2.23;;
70433;SDS011;57876;47.792;12.960;2022-08-27T07:53:28;6.15;;;1.90;;
70433;SDS011;57876;47.792;12.960;2022-08-27T07:55:52;5.40;;;2.37;;
70433;SDS011;57876;47.792;12.960;2022-08-27T07:58:17;5.33;;;2.20;;
70433;SDS011;57876;47.792;12.960;2022-08-27T08:00:42;5.40;;;2.10;;
70433;SDS011;57876;47.792;12.960;2022-08-27T08:03:07;5.43;;;2.33;;
70433;SDS011;57876;47.792;12.960;2022-08-27T08:05:32;5.28;;;2.17;;
70433;SDS011;57876;47.792;12.960;2022-08-27T08:07:57;5.70;;;2.30;;
70433;SDS011;57876;47.792;12.960;2022-08-27T08:10:22;5.30;;;2.30;;
70433;SDS011;57876;47.792;12.960;2022-08-27T08:12:47;5.68;;;2.30;;
70433;SDS011;57876;47.792;12.960;2022-08-27T08:15:11;6.67;;;2.83;;
70433;SDS011;57876;47.792;12.960;2022-08-27T08:17:36;5.45;;;2.20;;
70433;SDS011;57876;47.792;12.960;2022-08-27T08:20:03;6.00;;;2.15;;
70433;SDS011;57876;47.792;12.960;2022-08-27T08:22:29;5.97;;;2.53;;
70433;SDS011;57876;47.792;12.960;2022-08-27T08:24:53;5.57;;;2.42;;
70433;SDS011;57876;47.792;12.960;2022-08-27T08:27:18;5.33;;;2.23;;
70433;SDS011;57876;47.792;12.960;2022-08-27T08:29:43;5.60;;;2.40;;
70433;SDS011;57876;47.792;12.960;2022-08-27T08:32:08;5.35;;;2.28;;
70433;SDS011;57876;47.792;12.960;2022-08-27T08:37:28;6.15;;;2.28;;
70433;SDS011;57876;47.792;12.960;2022-08-27T08:39:52;5.47;;;2.10;;
70433;SDS011;57876;47.792;12.960;2022-08-27T08:42:34;4.97;;;2.15;;
70433;SDS011;57876;47.792;12.960;2022-08-27T08:45:03;6.03;;;2.47;;
70433;SDS011;57876;47.792;12.960;2022-08-27T08:47:48;5.55;;;2.35;;
70433;SDS011;57876;47.792;12.960;2022-08-27T08:50:18;5.82;;;2.30;;
70433;SDS011;57876;47.792;12.960;2022-08-27T08:57:39;5.70;;;2.50;;
70433;SDS011;57876;47.792;12.960;2022-08-27T09:00:12;6.13;;;2.60;;
70433;SDS011;57876;47.792;12.960;2022-08-27T09:02:38;6.05;;;2.60;;
70433;SDS011;57876;47.792;12.960;2022-08-27T09:05:06;5.53;;;2.30;;
70433;SDS011;57876;47.792;12.960;2022-08-27T09:07:36;6.07;;;2.30;;
70433;SDS011;57876;47.792;12.960;2022-08-27T09:10:13;5.43;;;2.20;;
70433;SDS011;57876;47.792;12.960;2022-08-27T09:12:47;5.78;;;2.53;;
70433;SDS011;57876;47.792;12.960;2022-08-27T09:15:13;6.37;;;2.20;;
70433;SDS011;57876;47.792;12.960;2022-08-27T09:17:40;5.82;;;2.40;;
70433;SDS011;57876;47.792;12.960;2022-08-27T09:20:07;6.40;;;2.80;;
70433;SDS011;57876;47.792;12.960;2022-08-27T09:25:07;6.10;;;2.30;;
70433;SDS011;57876;47.792;12.960;2022-08-27T09:27:38;5.53;;;2.30;;
70433;SDS011;57876;47.792;12.960;2022-08-27T09:30:12;6.38;;;2.63;;
70433;SDS011;57876;47.792;12.960;2022-08-27T09:32:43;6.47;;;2.67;;
70433;SDS011;57876;47.792;12.960;2022-08-27T09:35:09;5.60;;;2.30;;
70433;SDS011;57876;47.792;12.960;2022-08-27T09:37:39;5.72;;;2.58;;
70433;SDS011;57876;47.792;12.960;2022-08-27T09:40:51;7.05;;;2.53;;
70433;SDS011;57876;47.792;12.960;2022-08-27T09:43:41;6.00;;;2.50;;
70433;SDS011;57876;47.792;12.960;2022-08-27T09:45:51;5.53;;;2.30;;
70433;SDS011;57876;47.792;12.960;2022-08-27T09:48:19;5.97;;;2.45;;
70433;SDS011;57876;47.792;12.960;2022-08-27T09:50:55;6.25;;;2.35;;
70433;SDS011;57876;47.792;12.960;2022-08-27T09:53:26;6.03;;;2.45;;
70433;SDS011;57876;47.792;12.960;2022-08-27T09:55:58;5.67;;;2.30;;
70433;SDS011;57876;47.792;12.960;2022-08-27T09:58:26;5.60;;;2.08;;
70433;SDS011;57876;47.792;12.960;2022-08-27T10:01:04;5.93;;;2.58;;
70433;SDS011;57876;47.792;12.960;2022-08-27T10:03:39;7.38;;;2.40;;
70433;SDS011;57876;47.792;12.960;2022-08-27T10:06:03;5.73;;;2.33;;
70433;SDS011;57876;47.792;12.960;2022-08-27T10:11:29;5.43;;;2.33;;
70433;SDS011;57876;47.792;12.960;2022-08-27T10:14:41;5.20;;;2.20;;
70433;SDS011;57876;47.792;12.960;2022-08-27T10:21:59;5.68;;;2.13;;
70433;SDS011;57876;47.792;12.960;2022-08-27T10:32:01;5.67;;;2.27;;
70433;SDS011;57876;47.792;12.960;2022-08-27T10:45:23;6.00;;;2.40;;
70433;SDS011;57876;47.792;12.960;2022-08-27T10:48:44;5.82;;;2.45;;
70433;SDS011;57876;47.792;12.960;2022-08-27T10:51:05;5.63;;;2.40;;
70433;SDS011;57876;47.792;12.960;2022-08-27T10:53:43;6.13;;;2.33;;
70433;SDS011;57876;47.792;12.960;2022-08-27T10:56:35;5.82;;;2.65;;
70433;SDS011;57876;47.792;12.960;2022-08-27T10:59:09;5.60;;;2.10;;
70433;SDS011;57876;47.792;12.960;2022-08-27T11:01:46;5.80;;;2.50;;
70433;SDS011;57876;47.792;12.960;2022-08-27T11:04:36;6.03;;;2.60;;
70433;SDS011;57876;47.792;12.960;2022-08-27T11:07:18;6.53;;;2.30;;
70433;SDS011;57876;47.792;12.960;2022-08-27T11:09:51;5.63;;;2.47;;
70433;SDS011;57876;47.792;12.960;2022-08-27T11:12:38;6.00;;;2.30;;
70433;SDS011;57876;47.792;12.960;2022-08-27T11:15:12;6.38;;;2.30;;
70433;SDS011;57876;47.792;12.960;2022-08-27T11:17:52;6.18;;;2.50;;
70433;SDS011;57876;47.792;12.960;2022-08-27T11:20:22;5.93;;;2.40;;
70433;SDS011;57876;47.792;12.960;2022-08-27T11:22:55;5.55;;;2.28;;
70433;SDS011;57876;47.792;12.960;2022-08-27T11:27:49;6.15;;;2.50;;
70433;SDS011;57876;47.792;12.960;2022-08-27T11:30:21;5.50;;;2.20;;
70433;SDS011;57876;47.792;12.960;2022-08-27T11:35:38;5.75;;;2.45;;
70433;SDS011;57876;47.792;12.960;2022-08-27T11:38:23;5.82;;;2.47;;
70433;SDS011;57876;47.792;12.960;2022-08-27T11:42:32;5.63;;;2.58;;
70433;SDS011;57876;47.792;12.960;2022-08-27T11:44:48;5.43;;;2.37;;
70433;SDS011;57876;47.792;12.960;2022-08-27T11:47:18;5.95;;;2.60;;
70433;SDS011;57876;47.792;12.960;2022-08-27T11:49:46;6.15;;;2.50;;
70433;SDS011;57876;47.792;12.960;2022-08-27T11:52:21;6.50;;;2.42;;
70433;SDS011;57876;47.792;12.960;2022-08-27T11:54:54;5.75;;;2.42;;
70433;SDS011;57876;47.792;12.960;2022-08-27T11:57:49;6.20;;;2.30;;
70433;SDS011;57876;47.792;12.960;2022-08-27T12:00:28;5.82;;;2.45;;
70433;SDS011;57876;47.792;12.960;2022-08-27T12:02:57;5.47;;;2.17;;
70433;SDS011;57876;47.792;12.960;2022-08-27T12:05:31;6.53;;;2.67;;
70433;SDS011;57876;47.792;12.960;2022-08-27T12:08:09;5.68;;;2.60;;
70433;SDS011;57876;47.792;12.960;2022-08-27T12:13:31;5.55;;;2.38;;
70433;SDS011;57876;47.792;12.960;2022-08-27T12:21:29;6.47;;;2.83;;
70433;SDS011;57876;47.792;12.960;2022-08-27T12:24:10;7.07;;;2.60;;
70433;SDS011;57876;47.792;12.960;2022-08-27T12:26:52;6.53;;;2.67;;
70433;SDS011;57876;47.792;12.960;2022-08-27T12:29:21;5.80;;;2.40;;
70433;SDS011;57876;47.792;12.960;2022-08-27T12:32:17;6.18;;;2.83;;
70433;SDS011;57876;47.792;12.960;2022-08-27T12:37:38;6.45;;;2.60;;
70433;SDS011;57876;47.792;12.960;2022-08-27T12:40:10;5.60;;;2.60;;
70433;SDS011;57876;47.792;12.960;2022-08-27T12:42:40;6.63;;;2.58;;
70433;SDS011;57876;47.792;12.960;2022-08-27T12:45:05;6.28;;;2.70;;
70433;SDS011;57876;47.792;12.960;2022-08-27T12:47:32;5.93;;;2.30;;
70433;SDS011;57876;47.792;12.960;2022-08-27T12:50:03;6.35;;;2.47;;
70433;SDS011;57876;47.792;12.960;2022-08-27T12:58:15;5.80;;;2.40;;
70433;SDS011;57876;47.792;12.960;2022-08-27T13:00:57;5.90;;;2.55;;
70433;SDS011;57876;47.792;12.960;2022-08-27T13:06:24;6.18;;;2.85;;
70433;SDS011;57876;47.792;12.960;2022-08-27T13:08:57;6.28;;;2.72;;
70433;SDS011;57876;47.792;12.960;2022-08-27T13:11:25;6.97;;;2.80;;
70433;SDS011;57876;47.792;12.960;2022-08-27T13:14:11;6.47;;;2.78;;
70433;SDS011;57876;47.792;12.960;2022-08-27T13:16:45;5.95;;;2.83;;
70433;SDS011;57876;47.792;12.960;2022-08-27T13:19:17;7.00;;;2.88;;
70433;SDS011;57876;47.792;12.960;2022-08-27T13:21:57;5.95;;;2.63;;
70433;SDS011;57876;47.792;12.960;2022-08-27T13:24:32;6.30;;;2.80;;
70433;SDS011;57876;47.792;12.960;2022-08-27T13:26:58;6.82;;;2.90;;
70433;SDS011;57876;47.792;12.960;2022-08-27T13:29:26;6.20;;;2.80;;
70433;SDS011;57876;47.792;12.960;2022-08-27T13:31:50;6.17;;;2.70;;
70433;SDS011;57876;47.792;12.960;2022-08-27T13:34:17;6.23;;;2.97;;
70433;SDS011;57876;47.792;12.960;2022-08-27T13:37:20;6.97;;;3.05;;
70433;SDS011;57876;47.792;12.960;2022-08-27T13:39:54;6.60;;;2.90;;
70433;SDS011;57876;47.792;12.960;2022-08-27T13:42:19;6.03;;;3.10;;
70433;SDS011;57876;47.792;12.960;2022-08-27T13:44:44;7.18;;;3.10;;
70433;SDS011;57876;47.792;12.960;2022-08-27T13:47:19;6.57;;;2.80;;
70433;SDS011;57876;47.792;12.960;2022-08-27T13:49:46;8.00;;;2.97;;
70433;SDS011;57876;47.792;12.960;2022-08-27T13:54:39;6.40;;;2.80;;
70433;SDS011;57876;47.792;12.960;2022-08-27T13:57:10;6.25;;;2.95;;
70433;SDS011;57876;47.792;12.960;2022-08-27T13:59:37;6.00;;;2.65;;
70433;SDS011;57876;47.792;12.960;2022-08-27T14:07:09;6.70;;;3.17;;
70433;SDS011;57876;47.792;12.960;2022-08-27T14:09:48;6.28;;;2.85;;
70433;SDS011;57876;47.792;12.960;2022-08-27T14:12:26;6.60;;;2.80;;
70433;SDS011;57876;47.792;12.960;2022-08-27T14:14:54;6.45;;;3.00;;
70433;SDS011;57876;47.792;12.960;2022-08-27T14:17:21;6.60;;;3.10;;
70433;SDS011;57876;47.792;12.960;2022-08-27T14:19:48;5.87;;;2.70;;
70433;SDS011;57876;47.792;12.960;2022-08-27T14:22:12;6.10;;;2.72;;
70433;SDS011;57876;47.792;12.960;2022-08-27T14:24:37;6.40;;;2.83;;
70433;SDS011;57876;47.792;12.960;2022-08-27T14:27:07;6.90;;;2.83;;
70433;SDS011;57876;47.792;12.960;2022-08-27T14:29:33;6.47;;;3.00;;
70433;SDS011;57876;47.792;12.960;2022-08-27T14:31:57;6.80;;;2.90;;
70433;SDS011;57876;47.792;12.960;2022-08-27T14:34:22;6.25;;;2.60;;
70433;SDS011;57876;47.792;12.960;2022-08-27T14:36:46;6.50;;;2.90;;
70433;SDS011;57876;47.792;12.960;2022-08-27T14:39:11;6.63;;;2.90;;
70433;SDS011;57876;47.792;12.960;2022-08-27T14:41:36;6.10;;;2.70;;
70433;SDS011;57876;47.792;12.960;2022-08-27T14:44:01;6.65;;;2.97;;
70433;SDS011;57876;47.792;12.960;2022-08-27T14:46:27;7.23;;;3.30;;
70433;SDS011;57876;47.792;12.960;2022-08-27T14:48:54;6.28;;;2.95;;
70433;SDS011;57876;47.792;12.960;2022-08-27T14:51:22;6.65;;;3.10;;
70433;SDS011;57876;47.792;12.960;2022-08-27T14:53:49;6.72;;;3.20;;
70433;SDS011;57876;47.792;12.960;2022-08-27T14:56:14;6.63;;;3.03;;
70433;SDS011;57876;47.792;12.960;2022-08-27T14:58:39;6.50;;;2.73;;
70433;SDS011;57876;47.792;12.960;2022-08-27T15:01:03;6.67;;;3.13;;
70433;SDS011;57876;47.792;12.960;2022-08-27T15:03:28;7.20;;;3.05;;
70433;SDS011;57876;47.792;12.960;2022-08-27T15:05:53;7.23;;;3.10;;
70433;SDS011;57876;47.792;12.960;2022-08-27T15:08:18;6.75;;;3.17;;
70433;SDS011;57876;47.792;12.960;2022-08-27T15:10:42;7.03;;;3.10;;
70433;SDS011;57876;47.792;12.960;2022-08-27T15:13:06;8.13;;;3.47;;
70433;SDS011;57876;47.792;12.960;2022-08-27T15:15:34;8.23;;;3.70;;
70433;SDS011;57876;47.792;12.960;2022-08-27T15:17:58;6.40;;;3.07;;
70433;SDS011;57876;47.792;12.960;2022-08-27T15:20:22;7.63;;;3.00;;
70433;SDS011;57876;47.792;12.960;2022-08-27T15:22:48;6.67;;;3.13;;
70433;SDS011;57876;47.792;12.960;2022-08-27T15:25:14;6.53;;;2.97;;
70433;SDS011;57876;47.792;12.960;2022-08-27T15:27:39;6.90;;;3.10;;
70433;SDS011;57876;47.792;12.960;2022-08-27T15:30:04;6.20;;;2.93;;
70433;SDS011;57876;47.792;12.960;2022-08-27T15:32:32;6.70;;;2.97;;
70433;SDS011;57876;47.792;12.960;2022-08-27T15:34:59;7.32;;;3.03;;
70433;SDS011;57876;47.792;12.960;2022-08-27T15:37:28;6.63;;;2.83;;
70433;SDS011;57876;47.792;12.960;2022-08-27T15:39:53;6.68;;;2.97;;
70433;SDS011;57876;47.792;12.960;2022-08-27T15:42:18;7.17;;;3.10;;
70433;SDS011;57876;47.792;12.960;2022-08-27T15:44:45;6.72;;;2.70;;
70433;SDS011;57876;47.792;12.960;2022-08-27T15:47:11;6.72;;;2.58;;
70433;SDS011;57876;47.792;12.960;2022-08-27T15:49:36;6.38;;;3.05;;
70433;SDS011;57876;47.792;12.960;2022-08-27T15:52:01;6.70;;;3.03;;
70433;SDS011;57876;47.792;12.960;2022-08-27T15:54:26;7.40;;;3.00;;
70433;SDS011;57876;47.792;12.960;2022-08-27T15:56:51;6.53;;;3.00;;
70433;SDS011;57876;47.792;12.960;2022-08-27T15:59:16;6.10;;;2.83;;
70433;SDS011;57876;47.792;12.960;2022-08-27T16:01:40;6.43;;;2.65;;
70433;SDS011;57876;47.792;12.960;2022-08-27T16:04:05;6.10;;;2.88;;
70433;SDS011;57876;47.792;12.960;2022-08-27T16:06:30;6.93;;;3.00;;
70433;SDS011;57876;47.792;12.960;2022-08-27T16:08:55;6.28;;;2.88;;
70433;SDS011;57876;47.792;12.960;2022-08-27T16:11:20;7.33;;;2.97;;
70433;SDS011;57876;47.792;12.960;2022-08-27T16:13:45;6.30;;;2.70;;
70433;SDS011;57876;47.792;12.960;2022-08-27T16:16:10;6.77;;;2.93;;
70433;SDS011;57876;47.792;12.960;2022-08-27T16:18:35;6.53;;;3.05;;
70433;SDS011;57876;47.792;12.960;2022-08-27T16:21:01;6.35;;;3.17;;
70433;SDS011;57876;47.792;12.960;2022-08-27T16:23:27;7.60;;;2.90;;
70433;SDS011;57876;47.792;12.960;2022-08-27T16:25:53;6.47;;;2.78;;
70433;SDS011;57876;47.792;12.960;2022-08-27T16:28:18;6.73;;;2.60;;
70433;SDS011;57876;47.792;12.960;2022-08-27T16:30:42;7.63;;;3.08;;
70433;SDS011;57876;47.792;12.960;2022-08-27T16:33:07;7.80;;;2.83;;
70433;SDS011;57876;47.792;12.960;2022-08-27T16:35:33;8.43;;;2.85;;
70433;SDS011;57876;47.792;12.960;2022-08-27T16:37:57;6.50;;;2.73;;
70433;SDS011;57876;47.792;12.960;2022-08-27T16:40:25;7.40;;;2.73;;
70433;SDS011;57876;47.792;12.960;2022-08-27T16:42:50;7.28;;;2.88;;
70433;SDS011;57876;47.792;12.960;2022-08-27T16:45:15;7.78;;;2.95;;
70433;SDS011;57876;47.792;12.960;2022-08-27T16:47:41;6.75;;;2.92;;
70433;SDS011;57876;47.792;12.960;2022-08-27T16:50:24;6.30;;;2.60;;
70433;SDS011;57876;47.792;12.960;2022-08-27T16:53:12;6.65;;;2.80;;
70433;SDS011;57876;47.792;12.960;2022-08-27T16:55:38;5.72;;;2.53;;
70433;SDS011;57876;47.792;12.960;2022-08-27T16:58:06;6.80;;;3.00;;
70433;SDS011;57876;47.792;12.960;2022-08-27T17:00:38;7.03;;;2.63;;